createdAt,value
2022-12-11T00:00:28.062Z,27.6
2022-12-11T00:06:48.011Z,27.6
2022-12-11T00:13:10.950Z,28.1
2022-12-11T00:19:30.955Z,28.1
2022-12-11T00:25:53.935Z,23.2
2022-12-11T00:32:14.027Z,23.2
2022-12-11T00:38:36.913Z,34.4
2022-12-11T00:44:56.941Z,34.4
2022-12-11T00:51:19.906Z,22.5
2022-12-11T00:57:40.084Z,22.5
2022-12-11T01:04:02.900Z,30.2
2022-12-11T01:10:22.969Z,30.2
2022-12-11T01:16:46.165Z,22.1
2022-12-11T01:23:05.954Z,22.1
2022-12-11T01:29:28.892Z,12.2
2022-12-11T01:35:49.108Z,12.2
2022-12-11T01:42:12.038Z,20.8
2022-12-11T01:48:32.104Z,20.8
2022-12-11T01:54:55.005Z,27.1
2022-12-11T02:01:15.072Z,27.1
2022-12-11T02:07:38.009Z,30.3
2022-12-11T02:13:57.981Z,30.3
2022-12-11T02:20:21.002Z,22.6
2022-12-11T02:26:41.076Z,22.6
2022-12-11T02:33:03.926Z,49.2
2022-12-11T02:39:23.979Z,49.2
2022-12-11T02:45:47.053Z,16.3
2022-12-11T02:52:06.991Z,16.3
2022-12-11T02:58:29.890Z,29.6
2022-12-11T03:04:49.948Z,29.6
2022-12-11T03:11:13.006Z,17.6
2022-12-11T03:17:33.124Z,17.6
2022-12-11T03:23:56.015Z,19.4
2022-12-11T03:30:16.104Z,19.4
2022-12-11T03:36:39.022Z,19.1
2022-12-11T03:42:59.136Z,19.1
2022-12-11T03:49:22.076Z,30
2022-12-11T03:55:42.098Z,30
2022-12-11T04:02:05.021Z,15.4
2022-12-11T04:18:11.790Z,62.2
2022-12-11T04:24:31.924Z,62.2
2022-12-11T04:30:54.951Z,62.2
2022-12-11T04:37:15.000Z,62.2
2022-12-11T04:43:37.958Z,34.7
2022-12-11T04:49:57.933Z,34.7
2022-12-11T04:56:21.005Z,19
2022-12-11T05:02:40.937Z,19
2022-12-11T05:09:03.876Z,21.2
2022-12-11T05:15:24.113Z,21.2
2022-12-11T05:21:46.906Z,14.2
2022-12-11T05:28:06.931Z,14.2
2022-12-11T05:34:29.974Z,23.4
2022-12-11T05:40:49.877Z,23.4
2022-12-11T05:47:12.931Z,24.5
2022-12-11T05:53:32.931Z,24.5
2022-12-11T05:59:55.997Z,25.3
2022-12-11T06:06:16.012Z,25.3
2022-12-11T06:12:39.038Z,20.2
2022-12-11T06:18:58.978Z,20.2
2022-12-11T06:25:21.905Z,22.1
2022-12-11T06:31:41.962Z,22.1
2022-12-11T06:38:04.929Z,23.5
2022-12-11T06:44:24.926Z,23.5
2022-12-11T06:50:47.950Z,26
2022-12-11T06:57:07.892Z,26
2022-12-11T07:03:30.942Z,20.6
2022-12-11T07:09:51.089Z,20.6
2022-12-11T07:16:14.104Z,37.3
2022-12-11T07:22:34.008Z,37.3
2022-12-11T07:28:56.992Z,46.2
2022-12-11T07:35:16.903Z,46.2
2022-12-11T07:41:40.041Z,19.6
2022-12-11T07:47:59.967Z,19.6
2022-12-11T07:54:23.029Z,13.3
2022-12-11T08:00:42.999Z,13.3
2022-12-11T08:07:06.272Z,14.5
2022-12-11T08:13:25.997Z,14.5
2022-12-11T08:19:48.909Z,30.6
2022-12-11T08:26:08.935Z,30.6
2022-12-11T08:32:32.006Z,46.3
2022-12-11T08:38:52.030Z,46.3
2022-12-11T08:45:14.992Z,54.7
2022-12-11T08:51:34.884Z,54.7
2022-12-11T08:57:57.927Z,36.7
2022-12-11T09:04:18.101Z,36.7
2022-12-11T09:28:00.914Z,31
2022-12-11T09:34:29.035Z,63.7
2022-12-11T09:40:44.007Z,63.7
2022-12-11T09:47:07.099Z,63.7
2022-12-11T09:53:31.020Z,63.7
2022-12-11T09:59:49.973Z,20.9
2022-12-11T10:06:09.925Z,20.9
2022-12-11T10:12:32.928Z,14.3
2022-12-11T10:18:52.991Z,14.3
2022-12-11T10:25:15.945Z,29.1
2022-12-11T10:31:36.133Z,29.1
2022-12-11T10:37:59.292Z,31.4
2022-12-11T10:44:19.228Z,31.4
2022-12-11T10:50:42.063Z,50.3
2022-12-11T10:57:01.983Z,50.3
2022-12-11T11:03:24.938Z,21.8
2022-12-11T11:09:44.896Z,21.8
2022-12-11T11:16:07.974Z,20.5
2022-12-11T11:22:28.191Z,20.5
2022-12-11T11:28:51.036Z,27
2022-12-11T11:35:11.153Z,27
2022-12-11T11:41:33.910Z,15.6
2022-12-11T11:47:54.053Z,15.6
2022-12-11T11:54:16.897Z,21.3
2022-12-11T12:00:37.123Z,21.3
2022-12-11T12:07:00.094Z,18.8
2022-12-11T12:13:47.918Z,18.8
2022-12-11T12:19:43.020Z,22.4
2022-12-11T12:26:02.912Z,22.4
2022-12-11T12:32:26.133Z,18.1
2022-12-11T12:38:46.217Z,18.1
2022-12-11T12:45:09.368Z,28
2022-12-11T12:51:28.997Z,28
2022-12-11T12:57:51.922Z,24.6
2022-12-11T13:04:26.335Z,24.6
2022-12-11T13:10:34.925Z,20.9
2022-12-11T13:16:55.094Z,20.9
2022-12-11T13:23:18.021Z,18.7
2022-12-11T13:29:37.894Z,18.7
2022-12-11T13:36:01.247Z,20.9
2022-12-11T13:42:21.023Z,20.9
2022-12-11T13:48:44.026Z,15.1
2022-12-11T13:55:03.987Z,15.1
2022-12-11T14:01:27.078Z,25.7
2022-12-11T14:07:47.054Z,25.7
2022-12-11T14:30:17.369Z,41.8
2022-12-11T14:36:36.937Z,41.8
2022-12-11T14:43:00.542Z,45.3
2022-12-11T14:49:19.992Z,45.3
2022-12-11T14:55:42.906Z,19.8
2022-12-11T15:02:03.219Z,19.8
2022-12-11T15:08:25.988Z,12.4
2022-12-11T15:14:45.925Z,12.4
2022-12-11T15:21:09.078Z,21.8
2022-12-11T15:27:28.914Z,21.8
2022-12-11T15:33:51.926Z,22.5
2022-12-11T15:40:12.040Z,22.5
2022-12-11T15:46:35.183Z,12.9
2022-12-11T15:52:54.993Z,12.9
2022-12-11T15:59:18.609Z,20.2
2022-12-11T16:05:39.266Z,20.2
2022-12-11T16:12:02.005Z,19.8
2022-12-11T16:18:22.281Z,19.8
2022-12-11T16:24:44.952Z,9.7
2022-12-11T16:31:04.991Z,9.7
2022-12-11T16:37:28.315Z,30.9
2022-12-11T16:43:48.083Z,30.9
2022-12-11T16:50:11.984Z,17.5
2022-12-11T16:56:32.054Z,17.5
2022-12-11T17:02:55.023Z,23.9
2022-12-11T17:09:14.946Z,23.9
2022-12-11T17:15:37.927Z,21.4
2022-12-11T17:21:58.176Z,21.4
2022-12-11T17:28:20.980Z,23
2022-12-11T17:34:42.040Z,23
2022-12-11T17:41:05.199Z,20.9
2022-12-11T17:47:24.993Z,20.9
2022-12-11T17:53:47.916Z,17.2
2022-12-11T18:00:08.123Z,17.2
2022-12-11T18:06:30.892Z,32.4
2022-12-11T18:12:50.938Z,32.4
2022-12-11T18:19:13.967Z,23.5
2022-12-11T18:25:34.094Z,23.5
2022-12-11T18:31:57.166Z,8.6
2022-12-11T18:38:16.925Z,8.6
2022-12-11T18:44:40.013Z,30.8
2022-12-11T18:50:59.892Z,30.8
2022-12-11T18:57:22.983Z,27.8
2022-12-11T19:03:42.910Z,27.8
2022-12-11T19:10:06.019Z,16.1
2022-12-11T19:33:55.521Z,53
2022-12-11T19:40:14.876Z,53
2022-12-11T19:46:37.955Z,53
2022-12-11T19:52:58.050Z,53
2022-12-11T19:59:21.093Z,14.6
2022-12-11T20:05:41.131Z,14.6
2022-12-11T20:12:09.990Z,35.2
2022-12-11T20:18:23.962Z,35.2
2022-12-11T20:24:46.893Z,8.1
2022-12-11T20:31:07.088Z,8.1
2022-12-11T20:37:30.002Z,11.5
2022-12-11T20:43:49.930Z,11.5
2022-12-11T20:50:12.904Z,10.5
2022-12-11T20:56:33.102Z,10.5
2022-12-11T21:02:55.974Z,16.6
2022-12-11T21:09:16.152Z,16.6
2022-12-11T21:15:38.942Z,10.1
2022-12-11T21:21:58.890Z,10.1
2022-12-11T21:28:21.935Z,18.2
2022-12-11T21:34:41.972Z,18.2
2022-12-11T21:41:04.951Z,16
2022-12-11T21:47:25.012Z,16
2022-12-11T21:53:47.906Z,7.6
2022-12-11T22:00:08.028Z,7.6
2022-12-11T22:06:31.106Z,13.1
2022-12-11T22:12:50.924Z,13.1
2022-12-11T22:19:14.097Z,22.7
2022-12-11T22:25:34.038Z,22.7
2022-12-11T22:31:56.948Z,18.9
2022-12-11T22:38:16.932Z,18.9
2022-12-11T22:44:39.974Z,13.8
2022-12-11T22:50:59.921Z,13.8
2022-12-11T22:57:28.822Z,11.5
2022-12-11T23:21:36.908Z,40.5
2022-12-11T23:27:56.907Z,40.5
2022-12-11T23:34:19.999Z,40.5
2022-12-11T23:40:40.081Z,40.5
2022-12-11T23:47:03.092Z,6.3
2022-12-11T23:53:22.923Z,6.3
2022-12-11T23:59:45.966Z,13
